Time;durP1;ratioP1;P1;durP2;ratioP2;P2;SDS_P1;SDS_P2;PMS_P1;PMS_P2;Temp;Humidity;BMP_temperature;BMP_pressure;BME280_temperature;BME280_humidity;BME280_pressure;Samples;Min_cycle;Max_cycle;Signal;HPM_P1;HPM_P2
2021/05/27 00:00:07;;;;;;;22.27;10.40;;;9.60;99.90;;;;;;4951986;28;20042;-84
2021/05/27 00:02:33;;;;;;;30.35;12.02;;;9.60;99.90;;;;;;4960060;28;20035;-85
2021/05/27 00:04:58;;;;;;;29.27;11.70;;;9.60;99.90;;;;;;4946192;28;20093;-85
2021/05/27 00:07:26;;;;;;;32.15;11.57;;;9.60;99.90;;;;;;4931826;28;20063;-86
2021/05/27 00:09:52;;;;;;;24.33;11.35;;;9.60;99.90;;;;;;4945048;28;20066;-84
2021/05/27 00:12:18;;;;;;;26.35;11.88;;;9.60;99.90;;;;;;4975283;28;20038;-85
2021/05/27 00:14:43;;;;;;;31.15;11.02;;;9.60;99.90;;;;;;4957965;28;20093;-82
2021/05/27 00:17:09;;;;;;;25.67;11.05;;;9.60;99.90;;;;;;4982012;28;20510;-85
2021/05/27 00:19:35;;;;;;;32.85;12.25;;;9.60;99.90;;;;;;4937494;28;20046;-82
2021/05/27 00:22:01;;;;;;;28.38;10.13;;;9.60;99.90;;;;;;4958003;28;20039;-83
2021/05/27 00:24:29;;;;;;;28.08;11.75;;;9.60;99.90;;;;;;4947880;28;20039;-84
2021/05/27 00:26:55;;;;;;;25.77;12.27;;;9.60;99.90;;;;;;4959301;28;20471;-85
2021/05/27 00:29:21;;;;;;;31.00;12.00;;;9.60;99.90;;;;;;4947235;28;20038;-86
2021/05/27 00:31:47;;;;;;;29.80;12.57;;;9.60;99.90;;;;;;4945118;28;20392;-84
2021/05/27 00:34:13;;;;;;;31.20;12.05;;;9.60;99.90;;;;;;4931410;28;20182;-84
2021/05/27 00:36:39;;;;;;;25.60;11.13;;;9.60;99.90;;;;;;4977026;28;20318;-85
2021/05/27 00:39:05;;;;;;;30.00;11.98;;;9.60;99.90;;;;;;4958481;28;20041;-86
2021/05/27 00:41:31;;;;;;;23.83;11.43;;;9.60;99.90;;;;;;4954826;28;20031;-86
2021/05/27 00:43:57;;;;;;;29.70;11.57;;;9.60;99.90;;;;;;4930037;28;20426;-84
2021/05/27 00:46:23;;;;;;;24.60;11.63;;;9.60;99.90;;;;;;4965182;28;20070;-87
2021/05/27 00:49:01;;;;;;;28.75;12.02;;;9.60;99.90;;;;;;4974719;28;20343;-86
2021/05/27 00:51:28;;;;;;;25.33;10.30;;;9.60;99.90;;;;;;4976249;28;20517;-87
2021/05/27 00:53:58;;;;;;;25.02;12.25;;;9.60;99.90;;;;;;4955965;28;20394;-86
2021/05/27 00:56:26;;;;;;;26.67;11.95;;;9.60;99.90;;;;;;4927134;29;20514;-86
2021/05/27 00:58:53;;;;;;;29.33;10.75;;;9.60;99.90;;;;;;4944406;28;20074;-85
2021/05/27 01:01:20;;;;;;;31.58;10.93;;;9.60;99.90;;;;;;4945708;28;20045;-81
2021/05/27 01:03:46;;;;;;;26.88;10.02;;;9.60;99.90;;;;;;4949667;28;20122;-84
2021/05/27 01:06:11;;;;;;;24.50;10.43;;;9.60;99.90;;;;;;4995095;28;20382;-86
2021/05/27 01:08:37;;;;;;;24.35;10.57;;;9.60;99.90;;;;;;4950730;28;20106;-86
2021/05/27 01:11:04;;;;;;;22.55;10.15;;;9.60;99.90;;;;;;4967162;28;20050;-86
2021/05/27 01:13:32;;;;;;;28.05;11.25;;;9.60;99.90;;;;;;4968747;28;20065;-86
2021/05/27 01:15:59;;;;;;;29.77;10.70;;;9.60;99.90;;;;;;4964693;28;20054;-84
2021/05/27 01:18:26;;;;;;;31.52;11.05;;;9.60;99.90;;;;;;4965396;28;20871;-83
2021/05/27 01:20:55;;;;;;;22.42;8.98;;;9.60;99.90;;;;;;4950867;28;20062;-85
2021/05/27 01:23:24;;;;;;;28.65;10.07;;;9.60;99.90;;;;;;4962990;28;20049;-85
2021/05/27 01:25:52;;;;;;;19.42;9.40;;;9.60;99.90;;;;;;4958302;28;20212;-85
2021/05/27 01:28:19;;;;;;;28.45;9.95;;;9.60;99.90;;;;;;4972739;28;20043;-85
2021/05/27 01:30:46;;;;;;;23.25;9.77;;;9.60;99.90;;;;;;4960000;28;20039;-86
2021/05/27 01:33:16;;;;;;;26.67;9.80;;;9.60;99.90;;;;;;4978079;28;20053;-85
2021/05/27 01:35:43;;;;;;;25.35;11.10;;;9.60;99.90;;;;;;4974536;28;20042;-86
2021/05/27 01:38:18;;;;;;;23.20;10.60;;;9.60;99.90;;;;;;4944363;28;20512;-85
2021/05/27 01:40:44;;;;;;;29.23;9.88;;;9.60;99.90;;;;;;4956115;28;20042;-84
2021/05/27 01:43:11;;;;;;;34.03;10.60;;;9.60;99.90;;;;;;4961861;28;20110;-84
2021/05/27 01:45:37;;;;;;;30.08;10.50;;;9.60;99.90;;;;;;4961751;28;20086;-87
2021/05/27 01:48:05;;;;;;;28.05;11.65;;;9.60;99.90;;;;;;4961392;28;20044;-84
2021/05/27 01:50:31;;;;;;;26.58;11.10;;;9.60;99.90;;;;;;4953584;28;20089;-85
2021/05/27 01:53:06;;;;;;;26.77;11.02;;;9.60;99.90;;;;;;4957875;28;20539;-83
2021/05/27 01:55:32;;;;;;;25.00;10.48;;;9.60;99.90;;;;;;4960546;28;20031;-84
2021/05/27 01:57:59;;;;;;;30.38;10.35;;;9.60;99.90;;;;;;4945401;28;20513;-85
2021/05/27 02:00:27;;;;;;;32.25;11.30;;;9.60;99.90;;;;;;4955921;28;20310;-86
2021/05/27 02:02:53;;;;;;;33.20;10.90;;;9.60;99.90;;;;;;4962282;28;20034;-86
2021/05/27 02:05:18;;;;;;;25.48;10.75;;;9.60;99.90;;;;;;4945993;28;20038;-86
2021/05/27 02:07:44;;;;;;;27.63;10.50;;;9.60;99.90;;;;;;4932975;28;20041;-86
2021/05/27 02:10:11;;;;;;;31.10;10.98;;;9.60;99.90;;;;;;4999672;28;20085;-85
2021/05/27 02:12:37;;;;;;;30.30;11.82;;;9.60;99.90;;;;;;4966580;28;20496;-85
2021/05/27 02:15:05;;;;;;;28.05;10.95;;;9.70;99.90;;;;;;4943412;28;20117;-85
2021/05/27 02:17:31;;;;;;;32.85;12.25;;;9.60;99.90;;;;;;4961117;28;20035;-85
2021/05/27 02:19:57;;;;;;;25.45;11.70;;;9.60;99.90;;;;;;4943623;28;20407;-85
2021/05/27 02:22:23;;;;;;;32.70;12.88;;;9.60;99.90;;;;;;4958290;28;20082;-84
2021/05/27 02:24:50;;;;;;;29.13;11.75;;;9.60;99.90;;;;;;4940845;28;20039;-85
2021/05/27 02:27:17;;;;;;;26.55;11.05;;;9.70;99.90;;;;;;4971327;28;20481;-83
2021/05/27 02:29:43;;;;;;;28.70;11.65;;;9.70;99.90;;;;;;4955643;28;20188;-86
2021/05/27 02:32:09;;;;;;;28.35;10.40;;;9.60;99.90;;;;;;4958029;28;20243;-86
2021/05/27 02:34:35;;;;;;;29.13;10.80;;;9.70;99.90;;;;;;4949512;28;20557;-86
2021/05/27 02:37:01;;;;;;;28.85;10.18;;;9.70;99.90;;;;;;4949125;28;20085;-85
2021/05/27 02:39:28;;;;;;;18.55;9.95;;;9.70;99.90;;;;;;4958298;28;20790;-85
2021/05/27 02:41:54;;;;;;;24.77;11.00;;;9.70;99.90;;;;;;4992350;28;20027;-85
2021/05/27 02:44:20;;;;;;;20.02;9.88;;;9.70;99.90;;;;;;4981746;28;20058;-84
2021/05/27 02:46:46;;;;;;;26.50;9.15;;;9.70;99.90;;;;;;4960588;28;20078;-85
2021/05/27 02:49:12;;;;;;;28.17;9.68;;;9.70;99.90;;;;;;4961967;28;20042;-84
2021/05/27 02:51:38;;;;;;;28.52;10.77;;;9.70;99.90;;;;;;4958647;28;20038;-84
2021/05/27 02:54:04;;;;;;;28.00;10.05;;;9.70;99.90;;;;;;4965899;28;20270;-85
2021/05/27 02:56:30;;;;;;;29.35;11.20;;;9.70;99.90;;;;;;4975798;28;20047;-84
2021/05/27 02:58:56;;;;;;;28.60;10.13;;;9.70;99.90;;;;;;4954511;28;20486;-84
2021/05/27 03:01:22;;;;;;;31.80;10.73;;;9.70;99.90;;;;;;4962815;28;20050;-84
2021/05/27 03:03:48;;;;;;;24.10;9.68;;;9.70;99.90;;;;;;4942810;28;20043;-85
2021/05/27 03:06:14;;;;;;;21.88;9.15;;;9.70;99.90;;;;;;4976613;28;20043;-84
2021/05/27 03:08:43;;;;;;;23.33;9.65;;;9.70;99.90;;;;;;4957806;28;20532;-84
2021/05/27 03:11:11;;;;;;;29.65;10.27;;;9.70;99.90;;;;;;4964595;28;20122;-84
2021/05/27 03:13:37;;;;;;;30.15;10.15;;;9.70;99.90;;;;;;4945161;28;20061;-84
2021/05/27 03:16:03;;;;;;;24.23;8.75;;;9.70;99.90;;;;;;4958408;28;20569;-85
2021/05/27 03:18:30;;;;;;;27.38;8.82;;;9.60;99.90;;;;;;4954725;28;20039;-84
2021/05/27 03:20:58;;;;;;;22.88;8.88;;;9.70;99.90;;;;;;4964189;28;20034;-84
2021/05/27 03:23:24;;;;;;;29.73;10.07;;;9.70;99.90;;;;;;4960685;28;20422;-83
2021/05/27 03:25:49;;;;;;;24.05;8.75;;;9.60;99.90;;;;;;4955657;28;20035;-85
2021/05/27 03:28:15;;;;;;;26.38;9.35;;;9.60;99.90;;;;;;4973396;28;20062;-85
2021/05/27 03:30:41;;;;;;;34.58;10.50;;;9.60;99.90;;;;;;4972946;28;20129;-85
2021/05/27 03:33:08;;;;;;;23.33;8.25;;;9.60;99.90;;;;;;4962322;28;20027;-84
2021/05/27 03:35:34;;;;;;;31.67;9.98;;;9.70;99.90;;;;;;4958472;28;20401;-83
2021/05/27 03:38:00;;;;;;;23.58;9.27;;;9.60;99.90;;;;;;4942147;28;20042;-84
2021/05/27 03:40:26;;;;;;;21.73;8.23;;;9.60;99.90;;;;;;4954573;28;20039;-85
2021/05/27 03:42:56;;;;;;;22.55;8.07;;;9.60;99.90;;;;;;4960399;28;20090;-84
2021/05/27 03:45:24;;;;;;;24.75;8.05;;;9.60;99.90;;;;;;4973595;28;20046;-85
2021/05/27 03:47:51;;;;;;;17.20;7.63;;;9.60;99.90;;;;;;4949583;28;20039;-85
2021/05/27 03:50:26;;;;;;;22.05;8.00;;;9.60;99.90;;;;;;4927962;28;20083;-86
2021/05/27 03:52:53;;;;;;;21.42;8.57;;;9.60;99.90;;;;;;4957661;28;20106;-85
2021/05/27 03:55:20;;;;;;;22.88;8.43;;;9.60;99.90;;;;;;4954484;28;20046;-84
2021/05/27 03:57:48;;;;;;;23.67;8.32;;;9.60;99.90;;;;;;4972922;28;20043;-86
2021/05/27 04:03:04;;;;;;;18.80;7.20;;;9.60;99.90;;;;;;4959771;28;20046;-85
2021/05/27 04:08:15;;;;;;;18.70;6.75;;;9.60;99.90;;;;;;4955784;28;20038;-85
2021/05/27 04:10:41;;;;;;;23.50;7.10;;;9.60;99.90;;;;;;4950674;28;20035;-84
2021/05/27 04:13:07;;;;;;;21.90;6.97;;;9.60;99.90;;;;;;4980594;28;20592;-84
2021/05/27 04:15:35;;;;;;;15.32;5.88;;;9.60;99.90;;;;;;4965646;28;20034;-84
2021/05/27 04:18:11;;;;;;;9.15;4.43;;;9.60;99.90;;;;;;4958856;28;20134;-85
2021/05/27 04:20:49;;;;;;;17.90;6.45;;;9.60;99.90;;;;;;4977310;28;20087;-86
2021/05/27 04:23:36;;;;;;;15.80;6.13;;;9.60;99.90;;;;;;4964090;28;20554;-85
2021/05/27 04:26:08;;;;;;;14.60;5.68;;;9.60;99.90;;;;;;4949569;28;20039;-83
2021/05/27 04:28:34;;;;;;;19.42;6.10;;;9.60;99.90;;;;;;4970588;28;20051;-84
2021/05/27 04:31:11;;;;;;;13.38;5.28;;;9.60;99.90;;;;;;4964023;28;20315;-84
2021/05/27 04:33:43;;;;;;;17.23;5.57;;;9.60;99.90;;;;;;4958372;28;20043;-84
2021/05/27 04:36:14;;;;;;;15.27;5.22;;;9.60;99.90;;;;;;4974259;28;20070;-85
2021/05/27 04:38:41;;;;;;;12.65;5.47;;;9.60;99.90;;;;;;4972271;28;20078;-85
2021/05/27 04:41:07;;;;;;;13.70;5.15;;;9.60;99.90;;;;;;4962267;28;20042;-85
2021/05/27 04:43:35;;;;;;;17.67;5.38;;;9.60;99.90;;;;;;4954381;28;20069;-84
2021/05/27 04:46:01;;;;;;;16.40;5.68;;;9.60;99.90;;;;;;4957390;28;20051;-86
2021/05/27 04:48:27;;;;;;;16.20;5.75;;;9.60;99.90;;;;;;4967238;28;20061;-86
2021/05/27 04:50:53;;;;;;;14.07;5.88;;;9.50;99.90;;;;;;4964301;28;20125;-82
2021/05/27 04:53:21;;;;;;;22.50;6.85;;;9.50;99.90;;;;;;4958939;28;20361;-83
2021/05/27 04:55:47;;;;;;;23.00;7.32;;;9.50;99.90;;;;;;4970751;28;20486;-83
2021/05/27 04:58:14;;;;;;;19.42;6.28;;;9.50;99.90;;;;;;4955562;28;20046;-83
2021/05/27 05:00:40;;;;;;;22.85;7.05;;;9.50;99.90;;;;;;4992115;28;20049;-82
2021/05/27 05:03:06;;;;;;;14.13;6.10;;;9.50;99.90;;;;;;4958470;28;20038;-82
2021/05/27 05:05:34;;;;;;;19.02;5.93;;;9.50;99.90;;;;;;4964059;28;20520;-84
2021/05/27 05:08:00;;;;;;;20.60;7.03;;;9.50;99.90;;;;;;4965944;28;20113;-82
2021/05/27 05:10:27;;;;;;;16.60;6.07;;;9.50;99.90;;;;;;4964721;28;20063;-84
2021/05/27 05:12:54;;;;;;;18.35;6.75;;;9.50;99.90;;;;;;4961328;28;20059;-82
2021/05/27 05:15:21;;;;;;;21.30;6.72;;;9.40;99.90;;;;;;4962939;28;20042;-82
2021/05/27 05:17:58;;;;;;;33.38;9.20;;;9.50;99.90;;;;;;4975455;28;20035;-83
2021/05/27 05:20:26;;;;;;;24.05;6.65;;;9.50;99.90;;;;;;4995363;28;20068;-82
2021/05/27 05:22:53;;;;;;;24.98;8.30;;;9.50;99.90;;;;;;4977428;28;20061;-81
2021/05/27 05:25:20;;;;;;;19.90;7.60;;;9.50;99.90;;;;;;4975132;28;20068;-83
2021/05/27 05:27:46;;;;;;;34.65;8.73;;;9.50;99.90;;;;;;4960075;28;20121;-83
2021/05/27 05:30:13;;;;;;;19.20;7.50;;;9.50;99.90;;;;;;4949481;28;20139;-82
2021/05/27 05:32:40;;;;;;;19.80;7.63;;;9.50;99.90;;;;;;4964342;28;20046;-84
2021/05/27 05:35:08;;;;;;;18.42;7.25;;;9.50;99.90;;;;;;4994125;28;20039;-83
2021/05/27 05:37:35;;;;;;;35.38;9.38;;;9.50;99.90;;;;;;4964686;28;20482;-83
2021/05/27 05:40:02;;;;;;;26.10;8.40;;;9.50;99.90;;;;;;4963784;28;20043;-83
2021/05/27 05:42:28;;;;;;;20.40;7.43;;;9.50;99.90;;;;;;4966199;28;20072;-84
2021/05/27 05:44:54;;;;;;;28.83;8.48;;;9.50;99.90;;;;;;4953450;28;20059;-83
2021/05/27 05:47:20;;;;;;;20.65;7.55;;;9.50;99.90;;;;;;4968015;28;20046;-82
2021/05/27 05:49:46;;;;;;;21.95;7.80;;;9.60;99.90;;;;;;4958955;28;20039;-82
2021/05/27 05:52:13;;;;;;;31.70;8.82;;;9.60;99.90;;;;;;4966273;28;20054;-82
2021/05/27 05:54:39;;;;;;;28.73;8.50;;;9.60;99.90;;;;;;4958748;28;20043;-81
2021/05/27 05:57:06;;;;;;;23.63;9.25;;;9.60;99.90;;;;;;4992008;28;20070;-82
2021/05/27 05:59:32;;;;;;;23.75;7.50;;;9.60;99.90;;;;;;4972318;28;20049;-84
2021/05/27 06:01:58;;;;;;;24.08;7.93;;;9.60;99.90;;;;;;4979512;28;20035;-84
2021/05/27 06:04:25;;;;;;;30.55;7.97;;;9.60;99.90;;;;;;4959145;28;20437;-82
2021/05/27 06:06:51;;;;;;;19.98;7.53;;;9.60;99.90;;;;;;4959145;28;20394;-83
2021/05/27 06:09:18;;;;;;;18.02;7.57;;;9.60;99.90;;;;;;4963632;28;20481;-83
2021/05/27 06:11:44;;;;;;;27.30;8.00;;;9.60;99.90;;;;;;4963613;28;20098;-83
2021/05/27 06:14:10;;;;;;;32.80;8.95;;;9.60;99.90;;;;;;4949394;28;20308;-82
2021/05/27 06:16:36;;;;;;;21.88;8.60;;;9.60;99.90;;;;;;4967266;28;20134;-83
2021/05/27 06:19:02;;;;;;;29.33;9.38;;;9.60;99.90;;;;;;4967470;28;20126;-82
2021/05/27 06:21:28;;;;;;;28.75;9.30;;;9.60;99.90;;;;;;4963531;28;20081;-83
2021/05/27 06:23:54;;;;;;;16.55;7.20;;;9.60;99.90;;;;;;4969475;28;20027;-83
2021/05/27 06:26:20;;;;;;;18.45;7.88;;;9.60;99.90;;;;;;4961674;28;20046;-83
2021/05/27 06:28:46;;;;;;;30.95;9.60;;;9.60;99.90;;;;;;4969763;28;20039;-84
2021/05/27 06:31:17;;;;;;;28.63;9.15;;;9.60;99.90;;;;;;4961861;28;20411;-83
2021/05/27 06:33:43;;;;;;;23.23;9.13;;;9.60;99.90;;;;;;4998089;28;20031;-84
2021/05/27 06:36:10;;;;;;;29.20;9.30;;;9.60;99.90;;;;;;4976699;28;20031;-85
2021/05/27 06:38:37;;;;;;;34.53;11.68;;;9.60;99.90;;;;;;4972607;28;20529;-84
2021/05/27 06:41:03;;;;;;;39.67;11.60;;;9.60;99.90;;;;;;4962700;28;20102;-84
2021/05/27 06:43:29;;;;;;;32.17;12.20;;;9.60;99.90;;;;;;4963877;28;20101;-83
2021/05/27 06:45:56;;;;;;;35.45;11.35;;;9.60;99.90;;;;;;4941688;28;20062;-84
2021/05/27 06:48:23;;;;;;;48.13;14.52;;;9.60;99.90;;;;;;4962579;28;20588;-83
2021/05/27 06:50:49;;;;;;;48.97;13.85;;;9.60;99.90;;;;;;4963650;28;20053;-83
2021/05/27 06:53:15;;;;;;;42.58;13.10;;;9.60;99.90;;;;;;4990457;28;20062;-83
2021/05/27 06:55:43;;;;;;;45.88;14.15;;;9.70;99.90;;;;;;4943423;28;21432;-83
2021/05/27 06:58:09;;;;;;;47.25;13.80;;;9.70;99.90;;;;;;4933398;28;20141;-82
2021/05/27 07:00:36;;;;;;;45.78;13.10;;;9.70;99.90;;;;;;4934600;28;20047;-84
2021/05/27 07:03:03;;;;;;;36.85;10.70;;;9.70;99.90;;;;;;4952344;28;20069;-83
2021/05/27 07:05:30;;;;;;;45.80;12.43;;;9.70;99.90;;;;;;4966274;28;20035;-84
2021/05/27 07:07:57;;;;;;;50.08;13.65;;;9.70;99.90;;;;;;4964113;28;20043;-83
2021/05/27 07:10:23;;;;;;;34.13;11.90;;;9.70;99.90;;;;;;4963234;28;20516;-83
2021/05/27 07:12:53;;;;;;;41.85;12.52;;;9.70;99.90;;;;;;4947207;28;20089;-83
2021/05/27 07:15:21;;;;;;;38.90;11.85;;;9.70;99.90;;;;;;4939635;28;20035;-83
2021/05/27 07:17:48;;;;;;;28.38;11.20;;;9.70;99.90;;;;;;4951414;28;20508;-83
2021/05/27 07:20:15;;;;;;;46.45;13.00;;;9.70;99.90;;;;;;4952619;28;20113;-83
2021/05/27 07:22:41;;;;;;;44.15;13.65;;;9.70;99.90;;;;;;4958958;28;20035;-83
2021/05/27 07:25:09;;;;;;;44.75;13.48;;;9.80;99.90;;;;;;4963933;28;20035;-85
2021/05/27 07:27:35;;;;;;;32.22;10.27;;;9.80;99.90;;;;;;4957851;28;20039;-83
2021/05/27 07:30:02;;;;;;;48.42;11.57;;;9.80;99.90;;;;;;4952276;28;20137;-83
2021/05/27 07:32:28;;;;;;;38.33;11.65;;;9.80;99.90;;;;;;5001671;28;20417;-84
2021/05/27 07:34:54;;;;;;;34.95;11.48;;;9.90;99.90;;;;;;4952044;28;20038;-84
2021/05/27 07:37:20;;;;;;;39.88;12.18;;;9.90;99.90;;;;;;4979058;28;20037;-84
2021/05/27 07:39:47;;;;;;;48.08;12.55;;;9.90;99.90;;;;;;4974633;28;20034;-82
2021/05/27 07:42:13;;;;;;;38.60;12.65;;;10.00;99.90;;;;;;4957939;28;20070;-82
2021/05/27 07:44:39;;;;;;;42.90;12.40;;;10.00;99.90;;;;;;4936770;28;20494;-83
2021/05/27 07:47:06;;;;;;;35.78;11.25;;;10.10;99.90;;;;;;4954695;28;20303;-83
2021/05/27 07:49:32;;;;;;;38.08;11.52;;;10.10;99.90;;;;;;4951939;28;20042;-82
2021/05/27 07:51:59;;;;;;;34.65;11.07;;;10.10;99.90;;;;;;4947795;28;20486;-81
2021/05/27 07:54:25;;;;;;;29.15;11.02;;;10.10;99.90;;;;;;4961169;28;20039;-81
2021/05/27 07:56:52;;;;;;;23.05;10.05;;;10.20;99.90;;;;;;4962486;28;20274;-82
2021/05/27 07:59:18;;;;;;;31.83;9.93;;;10.20;99.90;;;;;;4961641;28;20435;-82
2021/05/27 08:01:44;;;;;;;32.40;11.55;;;10.20;99.90;;;;;;4961318;28;20035;-83
2021/05/27 08:04:11;;;;;;;31.00;8.60;;;10.30;99.90;;;;;;4953534;28;20038;-83
2021/05/27 08:06:37;;;;;;;24.98;7.93;;;10.30;99.90;;;;;;4955628;28;20039;-82
2021/05/27 08:09:07;;;;;;;18.85;7.82;;;10.40;99.90;;;;;;4951081;28;20576;-81
2021/05/27 08:11:33;;;;;;;31.80;11.25;;;10.40;99.90;;;;;;4955284;28;20042;-83
2021/05/27 08:13:59;;;;;;;15.95;7.07;;;10.40;99.90;;;;;;4943268;28;20086;-84
2021/05/27 08:16:25;;;;;;;21.20;8.32;;;10.50;99.90;;;;;;4960621;28;20045;-82
2021/05/27 08:18:51;;;;;;;25.65;9.68;;;10.60;99.90;;;;;;4951540;28;20122;-82
2021/05/27 08:21:17;;;;;;;15.98;6.95;;;10.70;99.90;;;;;;4953978;28;20121;-83
2021/05/27 08:23:44;;;;;;;21.70;8.05;;;10.80;99.90;;;;;;4954375;28;20214;-82
2021/05/27 08:26:10;;;;;;;11.40;3.97;;;10.80;99.90;;;;;;4943422;28;20066;-86
2021/05/27 08:28:36;;;;;;;9.93;6.22;;;10.80;99.90;;;;;;4951488;28;20778;-82
2021/05/27 08:31:02;;;;;;;7.82;3.88;;;10.80;99.90;;;;;;4952590;28;20039;-83
2021/05/27 08:33:28;;;;;;;12.73;4.30;;;10.80;99.90;;;;;;4960066;28;21281;-84
2021/05/27 08:35:54;;;;;;;17.17;6.60;;;10.80;99.90;;;;;;4951340;28;20438;-82
2021/05/27 08:38:20;;;;;;;20.40;7.75;;;10.90;99.90;;;;;;4959578;28;20367;-83
2021/05/27 08:40:46;;;;;;;14.50;5.43;;;11.00;99.90;;;;;;4959799;28;20058;-84
2021/05/27 08:43:13;;;;;;;17.45;7.22;;;11.00;99.90;;;;;;4971085;28;20031;-84
2021/05/27 08:45:41;;;;;;;20.17;7.97;;;11.10;99.90;;;;;;4953044;28;20050;-82
2021/05/27 08:48:19;;;;;;;22.55;8.18;;;11.20;99.90;;;;;;4961661;28;20042;-82
2021/05/27 08:50:46;;;;;;;12.52;5.95;;;11.20;99.90;;;;;;4959563;28;20039;-83
2021/05/27 08:53:15;;;;;;;10.88;5.63;;;11.30;99.90;;;;;;4959696;28;20046;-84
2021/05/27 08:55:42;;;;;;;15.15;6.13;;;11.40;99.90;;;;;;4957570;28;20042;-84
2021/05/27 08:58:08;;;;;;;10.43;4.72;;;11.50;99.90;;;;;;4953934;28;20442;-83
2021/05/27 09:00:35;;;;;;;7.82;3.92;;;11.60;99.90;;;;;;4952367;28;20042;-83
2021/05/27 09:03:04;;;;;;;14.15;4.15;;;11.60;99.90;;;;;;4922544;28;20081;-82
2021/05/27 09:05:33;;;;;;;20.10;5.53;;;11.60;99.90;;;;;;4954468;28;20620;-82
2021/05/27 09:08:00;;;;;;;20.45;4.95;;;11.60;99.90;;;;;;4971122;28;20035;-84
2021/05/27 09:10:46;;;;;;;10.98;4.30;;;11.60;99.90;;;;;;4961983;28;20489;-84
2021/05/27 09:13:20;;;;;;;14.48;4.97;;;11.70;99.90;;;;;;4952360;28;20035;-83
2021/05/27 09:15:50;;;;;;;25.05;6.38;;;11.70;99.90;;;;;;4931588;28;20067;-83
2021/05/27 09:18:32;;;;;;;20.98;5.57;;;11.60;99.90;;;;;;4951807;28;20057;-84
2021/05/27 09:20:59;;;;;;;16.02;4.25;;;11.70;99.90;;;;;;4954258;28;20489;-85
2021/05/27 09:23:25;;;;;;;18.00;4.57;;;11.70;99.90;;;;;;4969284;28;20406;-83
2021/05/27 09:26:06;;;;;;;16.33;4.35;;;11.60;99.90;;;;;;4933833;28;20043;-86
2021/05/27 09:28:33;;;;;;;17.15;3.92;;;11.60;99.90;;;;;;4978473;28;20508;-85
2021/05/27 09:31:13;;;;;;;18.17;4.43;;;11.60;99.90;;;;;;4958846;28;20377;-84
2021/05/27 09:33:41;;;;;;;16.70;4.32;;;11.50;99.90;;;;;;4952600;28;20064;-83
2021/05/27 09:36:13;;;;;;;15.38;4.28;;;11.50;99.90;;;;;;4969557;28;20030;-84
2021/05/27 09:38:48;;;;;;;26.92;6.80;;;11.40;99.90;;;;;;4977007;28;20039;-84
2021/05/27 09:41:25;;;;;;;24.23;6.18;;;11.40;99.90;;;;;;4965714;28;20123;-85
2021/05/27 09:44:01;;;;;;;20.20;5.05;;;11.40;99.90;;;;;;4953853;28;20126;-85
2021/05/27 09:46:29;;;;;;;20.60;4.70;;;11.50;99.90;;;;;;4970834;28;20031;-84
2021/05/27 09:49:08;;;;;;;20.55;4.57;;;11.50;99.90;;;;;;4940691;28;20043;-85
2021/05/27 09:51:36;;;;;;;16.58;3.92;;;11.40;99.90;;;;;;4956679;28;20145;-87
2021/05/27 09:54:03;;;;;;;19.52;4.35;;;11.40;99.90;;;;;;4953535;28;20070;-87
2021/05/27 09:56:42;;;;;;;22.05;4.72;;;11.40;99.90;;;;;;4933632;28;20093;-87
2021/05/27 09:59:12;;;;;;;16.67;3.78;;;11.30;99.90;;;;;;4981176;28;20039;-87
2021/05/27 10:01:40;;;;;;;20.63;4.68;;;11.30;99.90;;;;;;4977394;28;20050;-86
2021/05/27 10:04:17;;;;;;;18.35;3.53;;;11.40;99.90;;;;;;4958024;28;20462;-88
2021/05/27 10:06:43;;;;;;;19.45;3.70;;;11.40;99.90;;;;;;4955628;28;20545;-84
2021/05/27 10:09:10;;;;;;;16.20;4.20;;;11.40;99.90;;;;;;4953939;28;20298;-85
2021/05/27 10:11:38;;;;;;;20.17;3.53;;;11.40;99.90;;;;;;4962283;28;20057;-88
2021/05/27 10:14:07;;;;;;;18.92;3.83;;;11.40;99.90;;;;;;4958673;28;20042;-85
2021/05/27 10:16:40;;;;;;;17.85;4.18;;;11.40;99.90;;;;;;4968849;28;20130;-86
2021/05/27 10:19:13;;;;;;;16.58;4.03;;;11.40;99.90;;;;;;4939326;28;20506;-85
2021/05/27 10:21:57;;;;;;;19.58;4.32;;;11.30;99.90;;;;;;4980068;28;20074;-85
2021/05/27 10:24:26;;;;;;;22.23;4.50;;;11.30;99.90;;;;;;4957206;28;20054;-85
2021/05/27 10:27:22;;;;;;;22.42;5.13;;;11.30;99.90;;;;;;4953213;28;20631;-86
2021/05/27 10:29:54;;;;;;;21.67;5.60;;;11.30;99.90;;;;;;4948610;28;20045;-85
2021/05/27 10:32:28;;;;;;;24.83;6.53;;;11.30;99.90;;;;;;4964335;28;20155;-86
2021/05/27 10:35:18;;;;;;;21.63;6.32;;;11.40;99.90;;;;;;4952022;28;20044;-87
2021/05/27 10:37:56;;;;;;;14.25;5.20;;;11.50;99.90;;;;;;4977371;28;20035;-88
2021/05/27 10:41:09;;;;;;;16.90;5.30;;;11.50;99.90;;;;;;4956201;28;20127;-86
2021/05/27 10:44:05;;;;;;;17.05;5.03;;;11.70;99.90;;;;;;4967368;28;20129;-86
2021/05/27 10:46:32;;;;;;;15.07;4.60;;;11.80;99.90;;;;;;4976890;28;20491;-88
2021/05/27 10:49:08;;;;;;;20.63;5.60;;;11.80;99.90;;;;;;4961454;28;20038;-87
2021/05/27 10:51:49;;;;;;;16.50;4.10;;;11.90;99.90;;;;;;4966353;28;20061;-87
2021/05/27 10:54:41;;;;;;;22.50;5.68;;;12.00;99.90;;;;;;4959294;28;20133;-86
2021/05/27 10:57:35;;;;;;;11.88;3.53;;;12.20;99.90;;;;;;4955251;28;20473;-85
2021/05/27 11:00:01;;;;;;;9.73;2.88;;;12.20;99.90;;;;;;4962120;23;20175;-85
2021/05/27 11:02:34;;;;;;;12.90;4.57;;;12.00;99.90;;;;;;4993472;28;20114;-86
2021/05/27 11:05:30;;;;;;;24.25;5.72;;;11.90;99.80;;;;;;4957841;28;20066;-85
2021/05/27 11:11:35;;;;;;;23.13;7.80;;;11.80;99.90;;;;;;5021280;23;20515;-86
2021/05/27 11:14:46;;;;;;;31.30;9.10;;;12.00;99.90;;;;;;4950349;28;20130;-86
2021/05/27 11:17:15;;;;;;;24.55;6.57;;;12.20;99.90;;;;;;4915958;29;20058;-83
2021/05/27 11:20:08;;;;;;;22.00;5.47;;;12.30;99.90;;;;;;4960813;28;20071;-84
2021/05/27 11:22:40;;;;;;;15.55;3.40;;;12.20;99.90;;;;;;4911723;29;20043;-83
2021/05/27 11:27:37;;;;;;;12.40;4.55;;;12.00;99.90;;;;;;4932293;29;20307;-83
2021/05/27 11:33:25;;;;;;;17.65;4.13;;;11.90;99.90;;;;;;4928785;29;20106;-84
2021/05/27 11:35:54;;;;;;;17.95;4.20;;;11.80;99.90;;;;;;4909802;29;20553;-83
2021/05/27 11:38:28;;;;;;;28.10;6.53;;;11.80;99.90;;;;;;4932673;29;20149;-84
2021/05/27 11:40:57;;;;;;;15.05;4.05;;;11.70;99.90;;;;;;4917100;29;20071;-84
2021/05/27 11:43:29;;;;;;;14.30;4.00;;;11.70;99.90;;;;;;4907571;29;20032;-83
2021/05/27 11:45:57;;;;;;;15.15;3.45;;;11.70;99.90;;;;;;4905782;29;20515;-82
2021/05/27 11:48:32;;;;;;;28.58;5.80;;;11.70;99.90;;;;;;4934312;29;20482;-84
2021/05/27 11:51:12;;;;;;;19.45;3.55;;;11.80;99.90;;;;;;4925682;29;20074;-84
2021/05/27 11:53:52;;;;;;;19.88;4.80;;;11.80;99.90;;;;;;4928064;29;20063;-83
2021/05/27 11:56:42;;;;;;;19.60;4.50;;;11.90;99.90;;;;;;4935403;29;20040;-86
2021/05/27 11:59:18;;;;;;;15.77;3.72;;;11.90;99.90;;;;;;4946009;28;20198;-84
2021/05/27 12:01:50;;;;;;;17.60;4.82;;;11.90;99.90;;;;;;4917538;29;20031;-83
2021/05/27 12:04:23;;;;;;;14.65;5.78;;;12.00;99.90;;;;;;4914895;29;20411;-84
2021/05/27 12:07:07;;;;;;;15.35;3.78;;;12.20;99.90;;;;;;4927974;29;20040;-84
2021/05/27 12:09:46;;;;;;;14.73;3.65;;;12.40;99.90;;;;;;4914762;29;20035;-84
2021/05/27 12:12:17;;;;;;;15.02;4.43;;;12.40;99.90;;;;;;4908399;29;20043;-87
2021/05/27 12:14:59;;;;;;;17.45;4.78;;;12.30;99.90;;;;;;4932373;29;20110;-85
2021/05/27 12:17:57;;;;;;;17.70;3.40;;;12.30;99.90;;;;;;4920403;29;20035;-85
2021/05/27 12:20:32;;;;;;;19.63;3.58;;;12.20;99.90;;;;;;4913446;29;20114;-85
2021/05/27 12:23:13;;;;;;;15.05;3.65;;;12.00;99.90;;;;;;4897280;29;20341;-84
2021/05/27 12:25:50;;;;;;;15.63;4.13;;;12.00;99.90;;;;;;4911613;29;20039;-85
2021/05/27 12:28:28;;;;;;;14.73;3.70;;;12.00;99.90;;;;;;4931431;29;20043;-84
2021/05/27 12:30:56;;;;;;;11.10;2.97;;;12.00;99.90;;;;;;4935328;29;20039;-83
2021/05/27 12:33:31;;;;;;;17.95;3.55;;;12.20;99.90;;;;;;4925412;28;20043;-85
2021/05/27 12:36:06;;;;;;;15.55;4.13;;;12.20;99.90;;;;;;4895003;29;20039;-86
2021/05/27 12:38:32;;;;;;;24.52;5.35;;;12.20;99.90;;;;;;4931847;28;20129;-87
2021/05/27 12:41:04;;;;;;;14.98;4.43;;;12.30;99.90;;;;;;4929293;29;20046;-85
2021/05/27 12:43:38;;;;;;;13.25;3.20;;;12.50;99.90;;;;;;4947605;28;20499;-87
2021/05/27 12:46:11;;;;;;;13.35;4.43;;;12.60;99.90;;;;;;4927109;29;20135;-89
2021/05/27 12:48:55;;;;;;;15.00;3.58;;;12.70;99.90;;;;;;4912378;29;20443;-86
2021/05/27 12:51:23;;;;;;;12.68;3.05;;;12.70;99.90;;;;;;4895886;29;20044;-86
2021/05/27 12:53:54;;;;;;;9.70;2.63;;;12.60;99.90;;;;;;4926174;29;20152;-87
2021/05/27 12:56:31;;;;;;;16.42;3.75;;;12.50;99.80;;;;;;4918613;29;20046;-89
2021/05/27 12:59:02;;;;;;;16.58;3.15;;;12.40;99.70;;;;;;4923393;29;20403;-87
2021/05/27 13:01:37;;;;;;;11.40;2.65;;;12.40;99.70;;;;;;4916595;29;20051;-87
2021/05/27 13:04:05;;;;;;;13.50;3.10;;;12.30;99.70;;;;;;4928842;28;20142;-85
2021/05/27 13:06:39;;;;;;;10.70;3.08;;;12.30;99.70;;;;;;4911157;29;20062;-85